Terminal Aerodrome Forecast
Issued by NWS

Home | Current Version | Previous Version | Text Only | Print | Product List | Glossary On
Versions: 1 2 3 4 5 6 7 8 9 10 11 12 13 14 15 16 17 18 19 20 21
000
FTUS43 KGRB 281727
TAFMTW
TAF
KMTW 281727Z 2818/2918 20010KT P6SM SCT050 OVC100
     FM282100 19010KT P6SM SCT040 OVC080
      TEMPO 2822/2902 5SM -SHRA BR SCT020 OVC040
     FM290200 17005KT 5SM -SHRA BR BKN020 OVC040
     FM290700 16005KT 3SM -SHRA BR BKN009 OVC018
     FM291500 14005KT 5SM BR SCT009 OVC020 PROB30 2915/2918 2SM
      -SHRA BR BKN009=

USA.gov is the U.S. government's official web portal to all federal, state and local government web resources and services.